sensor_id;sensor_type;location;lat;lon;timestamp;P1;durP1;ratioP1;P2;durP2;ratioP2
25990;SDS011;13779;-33.886;151.198;2023-02-04T00:00:49;2.75;;;0.68;;
25990;SDS011;13779;-33.886;151.198;2023-02-04T00:03:19;2.70;;;0.60;;
25990;SDS011;13779;-33.886;151.198;2023-02-04T00:05:49;4.55;;;0.68;;
25990;SDS011;13779;-33.886;151.198;2023-02-04T00:08:19;1.92;;;0.70;;
25990;SDS011;13779;-33.886;151.198;2023-02-04T00:10:50;1.58;;;0.50;;
25990;SDS011;13779;-33.886;151.198;2023-02-04T00:13:20;1.20;;;0.47;;
25990;SDS011;13779;-33.886;151.198;2023-02-04T00:15:50;2.83;;;0.88;;
25990;SDS011;13779;-33.886;151.198;2023-02-04T00:18:21;1.30;;;0.50;;
25990;SDS011;13779;-33.886;151.198;2023-02-04T00:20:51;2.40;;;1.13;;
25990;SDS011;13779;-33.886;151.198;2023-02-04T00:23:21;5.53;;;0.98;;
25990;SDS011;13779;-33.886;151.198;2023-02-04T00:25:51;1.33;;;0.50;;
25990;SDS011;13779;-33.886;151.198;2023-02-04T00:28:22;2.15;;;0.43;;
25990;SDS011;13779;-33.886;151.198;2023-02-04T00:30:52;1.67;;;0.65;;
25990;SDS011;13779;-33.886;151.198;2023-02-04T00:33:22;2.72;;;0.68;;
25990;SDS011;13779;-33.886;151.198;2023-02-04T00:35:53;1.75;;;0.60;;
25990;SDS011;13779;-33.886;151.198;2023-02-04T00:38:23;3.95;;;0.40;;
25990;SDS011;13779;-33.886;151.198;2023-02-04T00:40:56;1.35;;;0.60;;
25990;SDS011;13779;-33.886;151.198;2023-02-04T00:43:27;2.13;;;0.70;;
25990;SDS011;13779;-33.886;151.198;2023-02-04T00:45:58;1.38;;;0.50;;
25990;SDS011;13779;-33.886;151.198;2023-02-04T00:48:28;3.33;;;0.93;;
25990;SDS011;13779;-33.886;151.198;2023-02-04T00:50:58;7.20;;;0.73;;
25990;SDS011;13779;-33.886;151.198;2023-02-04T00:53:29;2.88;;;0.80;;
25990;SDS011;13779;-33.886;151.198;2023-02-04T00:55:59;4.03;;;0.85;;
25990;SDS011;13779;-33.886;151.198;2023-02-04T00:58:30;1.33;;;0.50;;
25990;SDS011;13779;-33.886;151.198;2023-02-04T01:01:00;2.75;;;0.98;;
25990;SDS011;13779;-33.886;151.198;2023-02-04T01:03:30;2.83;;;0.80;;
25990;SDS011;13779;-33.886;151.198;2023-02-04T01:06:00;3.92;;;0.47;;
25990;SDS011;13779;-33.886;151.198;2023-02-04T01:08:30;2.30;;;0.55;;
25990;SDS011;13779;-33.886;151.198;2023-02-04T01:11:01;1.23;;;0.70;;
25990;SDS011;13779;-33.886;151.198;2023-02-04T01:13:31;2.38;;;0.40;;
25990;SDS011;13779;-33.886;151.198;2023-02-04T01:16:01;2.95;;;0.77;;
25990;SDS011;13779;-33.886;151.198;2023-02-04T01:18:31;3.90;;;0.70;;
25990;SDS011;13779;-33.886;151.198;2023-02-04T01:21:02;1.70;;;0.50;;
25990;SDS011;13779;-33.886;151.198;2023-02-04T01:23:32;1.60;;;0.80;;
25990;SDS011;13779;-33.886;151.198;2023-02-04T01:26:03;1.20;;;0.50;;
25990;SDS011;13779;-33.886;151.198;2023-02-04T01:28:33;0.93;;;0.33;;
25990;SDS011;13779;-33.886;151.198;2023-02-04T01:31:03;1.35;;;0.90;;
25990;SDS011;13779;-33.886;151.198;2023-02-04T01:33:33;0.30;;;0.20;;
25990;SDS011;13779;-33.886;151.198;2023-02-04T01:36:04;2.60;;;1.08;;
25990;SDS011;13779;-33.886;151.198;2023-02-04T01:38:34;3.05;;;0.50;;
25990;SDS011;13779;-33.886;151.198;2023-02-04T01:41:05;1.38;;;0.50;;
25990;SDS011;13779;-33.886;151.198;2023-02-04T01:43:35;5.53;;;0.75;;
25990;SDS011;13779;-33.886;151.198;2023-02-04T01:46:05;2.72;;;0.40;;
25990;SDS011;13779;-33.886;151.198;2023-02-04T01:48:36;1.90;;;0.50;;
25990;SDS011;13779;-33.886;151.198;2023-02-04T01:51:11;0.82;;;0.45;;
25990;SDS011;13779;-33.886;151.198;2023-02-04T01:53:43;3.00;;;0.82;;
25990;SDS011;13779;-33.886;151.198;2023-02-04T01:56:15;1.73;;;0.60;;
25990;SDS011;13779;-33.886;151.198;2023-02-04T01:58:47;3.05;;;0.57;;
25990;SDS011;13779;-33.886;151.198;2023-02-04T02:04:12;3.05;;;0.70;;
25990;SDS011;13779;-33.886;151.198;2023-02-04T02:06:46;1.40;;;0.52;;
25990;SDS011;13779;-33.886;151.198;2023-02-04T02:09:20;2.90;;;0.60;;
25990;SDS011;13779;-33.886;151.198;2023-02-04T02:11:51;0.95;;;0.40;;
25990;SDS011;13779;-33.886;151.198;2023-02-04T02:14:21;1.92;;;0.50;;
25990;SDS011;13779;-33.886;151.198;2023-02-04T02:16:51;3.35;;;0.85;;
25990;SDS011;13779;-33.886;151.198;2023-02-04T02:19:29;2.38;;;0.52;;
25990;SDS011;13779;-33.886;151.198;2023-02-04T02:22:12;2.90;;;0.55;;
25990;SDS011;13779;-33.886;151.198;2023-02-04T02:24:53;1.55;;;0.50;;
25990;SDS011;13779;-33.886;151.198;2023-02-04T02:27:23;2.23;;;0.50;;
25990;SDS011;13779;-33.886;151.198;2023-02-04T02:29:53;1.35;;;0.70;;
25990;SDS011;13779;-33.886;151.198;2023-02-04T02:32:24;1.85;;;0.30;;
25990;SDS011;13779;-33.886;151.198;2023-02-04T02:34:56;1.08;;;0.50;;
25990;SDS011;13779;-33.886;151.198;2023-02-04T02:37:26;1.60;;;0.60;;
25990;SDS011;13779;-33.886;151.198;2023-02-04T02:39:56;5.45;;;1.00;;
25990;SDS011;13779;-33.886;151.198;2023-02-04T02:42:26;1.40;;;0.53;;
25990;SDS011;13779;-33.886;151.198;2023-02-04T02:44:57;1.05;;;0.50;;
25990;SDS011;13779;-33.886;151.198;2023-02-04T02:47:28;1.95;;;0.50;;
25990;SDS011;13779;-33.886;151.198;2023-02-04T02:49:58;3.40;;;0.40;;
25990;SDS011;13779;-33.886;151.198;2023-02-04T02:52:28;2.15;;;0.80;;
25990;SDS011;13779;-33.886;151.198;2023-02-04T02:54:59;2.53;;;0.83;;
25990;SDS011;13779;-33.886;151.198;2023-02-04T02:57:29;1.05;;;0.60;;
25990;SDS011;13779;-33.886;151.198;2023-02-04T02:59:59;2.80;;;0.95;;
25990;SDS011;13779;-33.886;151.198;2023-02-04T03:02:31;4.82;;;0.43;;
25990;SDS011;13779;-33.886;151.198;2023-02-04T03:05:01;1.70;;;0.40;;
25990;SDS011;13779;-33.886;151.198;2023-02-04T03:07:31;4.82;;;0.40;;
25990;SDS011;13779;-33.886;151.198;2023-02-04T03:10:02;1.95;;;0.93;;
25990;SDS011;13779;-33.886;151.198;2023-02-04T03:12:33;1.40;;;0.70;;
25990;SDS011;13779;-33.886;151.198;2023-02-04T03:15:03;1.87;;;0.67;;
25990;SDS011;13779;-33.886;151.198;2023-02-04T03:17:33;3.00;;;0.50;;
25990;SDS011;13779;-33.886;151.198;2023-02-04T03:20:04;1.40;;;0.68;;
25990;SDS011;13779;-33.886;151.198;2023-02-04T03:22:34;1.17;;;0.40;;
25990;SDS011;13779;-33.886;151.198;2023-02-04T03:25:05;0.70;;;0.50;;
25990;SDS011;13779;-33.886;151.198;2023-02-04T03:27:35;1.23;;;0.57;;
25990;SDS011;13779;-33.886;151.198;2023-02-04T03:30:06;2.38;;;0.50;;
25990;SDS011;13779;-33.886;151.198;2023-02-04T03:32:36;1.23;;;0.32;;
25990;SDS011;13779;-33.886;151.198;2023-02-04T03:35:09;3.33;;;0.47;;
25990;SDS011;13779;-33.886;151.198;2023-02-04T03:37:40;0.90;;;0.32;;
25990;SDS011;13779;-33.886;151.198;2023-02-04T03:42:40;1.50;;;0.75;;
25990;SDS011;13779;-33.886;151.198;2023-02-04T03:45:10;2.00;;;0.55;;
25990;SDS011;13779;-33.886;151.198;2023-02-04T03:47:40;3.75;;;0.52;;
25990;SDS011;13779;-33.886;151.198;2023-02-04T03:50:11;2.22;;;0.80;;
25990;SDS011;13779;-33.886;151.198;2023-02-04T03:52:41;2.33;;;1.00;;
25990;SDS011;13779;-33.886;151.198;2023-02-04T03:55:12;0.95;;;0.47;;
25990;SDS011;13779;-33.886;151.198;2023-02-04T03:57:43;4.10;;;0.32;;
25990;SDS011;13779;-33.886;151.198;2023-02-04T04:00:13;0.73;;;0.40;;
25990;SDS011;13779;-33.886;151.198;2023-02-04T04:02:47;3.35;;;0.30;;
25990;SDS011;13779;-33.886;151.198;2023-02-04T04:05:17;0.45;;;0.45;;
25990;SDS011;13779;-33.886;151.198;2023-02-04T04:07:47;3.17;;;0.70;;
25990;SDS011;13779;-33.886;151.198;2023-02-04T04:10:18;1.10;;;0.50;;
25990;SDS011;13779;-33.886;151.198;2023-02-04T04:13:17;3.67;;;0.60;;
25990;SDS011;13779;-33.886;151.198;2023-02-04T04:15:53;3.58;;;0.43;;
25990;SDS011;13779;-33.886;151.198;2023-02-04T04:18:23;2.05;;;0.50;;
25990;SDS011;13779;-33.886;151.198;2023-02-04T04:20:54;2.30;;;0.60;;
25990;SDS011;13779;-33.886;151.198;2023-02-04T04:23:25;1.08;;;0.40;;
25990;SDS011;13779;-33.886;151.198;2023-02-04T04:25:55;0.88;;;0.40;;
25990;SDS011;13779;-33.886;151.198;2023-02-04T04:28:25;1.60;;;0.65;;
25990;SDS011;13779;-33.886;151.198;2023-02-04T04:30:56;1.07;;;0.30;;
25990;SDS011;13779;-33.886;151.198;2023-02-04T04:33:29;1.30;;;0.40;;
25990;SDS011;13779;-33.886;151.198;2023-02-04T04:36:00;2.20;;;0.20;;
25990;SDS011;13779;-33.886;151.198;2023-02-04T04:38:30;2.33;;;0.70;;
25990;SDS011;13779;-33.886;151.198;2023-02-04T04:41:01;0.52;;;0.40;;
25990;SDS011;13779;-33.886;151.198;2023-02-04T04:43:31;2.10;;;0.82;;
25990;SDS011;13779;-33.886;151.198;2023-02-04T04:46:01;2.03;;;0.75;;
25990;SDS011;13779;-33.886;151.198;2023-02-04T04:48:31;2.38;;;1.10;;
25990;SDS011;13779;-33.886;151.198;2023-02-04T04:51:01;0.40;;;0.30;;
25990;SDS011;13779;-33.886;151.198;2023-02-04T04:53:32;0.77;;;0.30;;
25990;SDS011;13779;-33.886;151.198;2023-02-04T04:56:02;0.53;;;0.30;;
25990;SDS011;13779;-33.886;151.198;2023-02-04T04:58:33;1.13;;;0.30;;
25990;SDS011;13779;-33.886;151.198;2023-02-04T05:01:03;1.40;;;0.30;;
25990;SDS011;13779;-33.886;151.198;2023-02-04T05:03:36;2.53;;;0.43;;
25990;SDS011;13779;-33.886;151.198;2023-02-04T05:06:07;1.90;;;0.47;;
25990;SDS011;13779;-33.886;151.198;2023-02-04T05:08:38;2.83;;;0.30;;
25990;SDS011;13779;-33.886;151.198;2023-02-04T05:11:08;1.43;;;0.40;;
25990;SDS011;13779;-33.886;151.198;2023-02-04T05:13:39;1.52;;;0.90;;
25990;SDS011;13779;-33.886;151.198;2023-02-04T05:16:09;0.40;;;0.30;;
25990;SDS011;13779;-33.886;151.198;2023-02-04T05:18:43;0.75;;;0.35;;
25990;SDS011;13779;-33.886;151.198;2023-02-04T05:21:13;0.60;;;0.30;;
25990;SDS011;13779;-33.886;151.198;2023-02-04T05:23:43;1.33;;;0.40;;
25990;SDS011;13779;-33.886;151.198;2023-02-04T05:26:13;3.88;;;0.57;;
25990;SDS011;13779;-33.886;151.198;2023-02-04T05:28:55;0.35;;;0.35;;
25990;SDS011;13779;-33.886;151.198;2023-02-04T05:31:27;0.50;;;0.25;;
25990;SDS011;13779;-33.886;151.198;2023-02-04T05:33:58;2.55;;;0.57;;
25990;SDS011;13779;-33.886;151.198;2023-02-04T05:36:28;1.02;;;0.50;;
25990;SDS011;13779;-33.886;151.198;2023-02-04T05:38:58;1.77;;;0.60;;
25990;SDS011;13779;-33.886;151.198;2023-02-04T05:41:28;2.22;;;0.40;;
25990;SDS011;13779;-33.886;151.198;2023-02-04T05:44:01;2.67;;;0.43;;
25990;SDS011;13779;-33.886;151.198;2023-02-04T05:46:31;2.63;;;0.63;;
25990;SDS011;13779;-33.886;151.198;2023-02-04T05:49:01;1.20;;;1.00;;
25990;SDS011;13779;-33.886;151.198;2023-02-04T05:51:31;1.33;;;0.68;;
25990;SDS011;13779;-33.886;151.198;2023-02-04T05:54:01;4.45;;;0.50;;
25990;SDS011;13779;-33.886;151.198;2023-02-04T05:56:32;1.00;;;0.50;;
25990;SDS011;13779;-33.886;151.198;2023-02-04T05:59:02;1.25;;;0.38;;
25990;SDS011;13779;-33.886;151.198;2023-02-04T06:01:32;1.02;;;0.30;;
25990;SDS011;13779;-33.886;151.198;2023-02-04T06:04:02;2.63;;;0.70;;
25990;SDS011;13779;-33.886;151.198;2023-02-04T06:06:32;2.53;;;0.80;;
25990;SDS011;13779;-33.886;151.198;2023-02-04T06:09:04;1.15;;;0.70;;
25990;SDS011;13779;-33.886;151.198;2023-02-04T06:11:34;2.92;;;0.55;;
25990;SDS011;13779;-33.886;151.198;2023-02-04T06:14:04;1.65;;;0.70;;
25990;SDS011;13779;-33.886;151.198;2023-02-04T06:16:34;1.10;;;0.73;;
25990;SDS011;13779;-33.886;151.198;2023-02-04T06:19:05;2.47;;;0.50;;
25990;SDS011;13779;-33.886;151.198;2023-02-04T06:21:35;1.63;;;0.45;;
25990;SDS011;13779;-33.886;151.198;2023-02-04T06:24:06;0.45;;;0.40;;
25990;SDS011;13779;-33.886;151.198;2023-02-04T06:26:36;2.20;;;0.40;;
25990;SDS011;13779;-33.886;151.198;2023-02-04T06:29:06;2.00;;;0.80;;
25990;SDS011;13779;-33.886;151.198;2023-02-04T06:31:36;2.27;;;1.10;;
25990;SDS011;13779;-33.886;151.198;2023-02-04T06:36:37;2.35;;;0.75;;
25990;SDS011;13779;-33.886;151.198;2023-02-04T06:39:07;1.67;;;0.50;;
25990;SDS011;13779;-33.886;151.198;2023-02-04T06:41:37;2.03;;;0.73;;
25990;SDS011;13779;-33.886;151.198;2023-02-04T06:44:08;1.87;;;0.37;;
25990;SDS011;13779;-33.886;151.198;2023-02-04T06:46:38;1.60;;;0.73;;
25990;SDS011;13779;-33.886;151.198;2023-02-04T06:49:08;1.80;;;0.70;;
25990;SDS011;13779;-33.886;151.198;2023-02-04T06:51:38;2.05;;;0.40;;
25990;SDS011;13779;-33.886;151.198;2023-02-04T06:54:09;5.75;;;0.50;;
25990;SDS011;13779;-33.886;151.198;2023-02-04T06:56:39;0.47;;;0.20;;
25990;SDS011;13779;-33.886;151.198;2023-02-04T06:59:11;2.10;;;0.30;;
25990;SDS011;13779;-33.886;151.198;2023-02-04T07:01:41;0.55;;;0.40;;
25990;SDS011;13779;-33.886;151.198;2023-02-04T07:04:11;1.20;;;0.70;;
25990;SDS011;13779;-33.886;151.198;2023-02-04T07:06:42;1.60;;;0.60;;
25990;SDS011;13779;-33.886;151.198;2023-02-04T07:09:12;5.10;;;3.50;;
25990;SDS011;13779;-33.886;151.198;2023-02-04T07:11:42;3.28;;;1.25;;
25990;SDS011;13779;-33.886;151.198;2023-02-04T07:14:13;0.85;;;0.50;;
25990;SDS011;13779;-33.886;151.198;2023-02-04T07:16:43;1.23;;;0.50;;
25990;SDS011;13779;-33.886;151.198;2023-02-04T07:19:13;0.65;;;0.50;;
25990;SDS011;13779;-33.886;151.198;2023-02-04T07:21:44;1.73;;;0.50;;
25990;SDS011;13779;-33.886;151.198;2023-02-04T07:24:15;0.57;;;0.47;;
25990;SDS011;13779;-33.886;151.198;2023-02-04T07:26:45;2.27;;;0.53;;
25990;SDS011;13779;-33.886;151.198;2023-02-04T07:29:15;3.50;;;0.60;;
25990;SDS011;13779;-33.886;151.198;2023-02-04T07:31:51;1.55;;;0.50;;
25990;SDS011;13779;-33.886;151.198;2023-02-04T07:34:22;1.83;;;0.40;;
25990;SDS011;13779;-33.886;151.198;2023-02-04T07:36:52;1.60;;;0.90;;
25990;SDS011;13779;-33.886;151.198;2023-02-04T07:39:22;2.10;;;0.83;;
25990;SDS011;13779;-33.886;151.198;2023-02-04T07:41:52;1.35;;;0.50;;
25990;SDS011;13779;-33.886;151.198;2023-02-04T07:44:23;1.15;;;0.40;;
25990;SDS011;13779;-33.886;151.198;2023-02-04T07:46:53;3.50;;;0.43;;
25990;SDS011;13779;-33.886;151.198;2023-02-04T07:49:24;0.95;;;0.40;;
25990;SDS011;13779;-33.886;151.198;2023-02-04T07:51:56;3.90;;;0.77;;
25990;SDS011;13779;-33.886;151.198;2023-02-04T07:54:27;1.50;;;0.70;;
25990;SDS011;13779;-33.886;151.198;2023-02-04T07:56:57;3.88;;;0.73;;
25990;SDS011;13779;-33.886;151.198;2023-02-04T07:59:27;3.00;;;0.50;;
25990;SDS011;13779;-33.886;151.198;2023-02-04T08:01:58;0.63;;;0.50;;
25990;SDS011;13779;-33.886;151.198;2023-02-04T08:06:58;2.45;;;0.65;;
25990;SDS011;13779;-33.886;151.198;2023-02-04T08:09:29;2.53;;;0.75;;
25990;SDS011;13779;-33.886;151.198;2023-02-04T08:11:59;1.92;;;0.50;;
25990;SDS011;13779;-33.886;151.198;2023-02-04T08:14:29;1.30;;;0.80;;
25990;SDS011;13779;-33.886;151.198;2023-02-04T08:16:59;1.25;;;0.60;;
25990;SDS011;13779;-33.886;151.198;2023-02-04T08:19:29;1.25;;;0.75;;
25990;SDS011;13779;-33.886;151.198;2023-02-04T08:21:59;0.65;;;0.60;;
25990;SDS011;13779;-33.886;151.198;2023-02-04T08:24:30;1.23;;;0.60;;
25990;SDS011;13779;-33.886;151.198;2023-02-04T08:27:00;1.13;;;0.60;;
25990;SDS011;13779;-33.886;151.198;2023-02-04T08:29:30;2.90;;;0.70;;
25990;SDS011;13779;-33.886;151.198;2023-02-04T08:32:00;2.08;;;0.55;;
25990;SDS011;13779;-33.886;151.198;2023-02-04T08:34:30;1.58;;;0.70;;
25990;SDS011;13779;-33.886;151.198;2023-02-04T08:37:00;4.60;;;0.80;;
25990;SDS011;13779;-33.886;151.198;2023-02-04T08:39:30;1.02;;;0.70;;
25990;SDS011;13779;-33.886;151.198;2023-02-04T08:42:01;1.25;;;0.50;;
25990;SDS011;13779;-33.886;151.198;2023-02-04T08:44:31;0.93;;;0.60;;
25990;SDS011;13779;-33.886;151.198;2023-02-04T08:47:01;1.45;;;0.73;;
25990;SDS011;13779;-33.886;151.198;2023-02-04T08:49:31;3.35;;;0.98;;
25990;SDS011;13779;-33.886;151.198;2023-02-04T08:52:01;1.33;;;0.80;;
25990;SDS011;13779;-33.886;151.198;2023-02-04T08:54:33;3.42;;;0.85;;
25990;SDS011;13779;-33.886;151.198;2023-02-04T08:57:04;1.33;;;0.82;;
25990;SDS011;13779;-33.886;151.198;2023-02-04T08:59:34;2.40;;;0.70;;
25990;SDS011;13779;-33.886;151.198;2023-02-04T09:02:04;3.22;;;0.93;;
25990;SDS011;13779;-33.886;151.198;2023-02-04T09:04:35;4.25;;;0.95;;
25990;SDS011;13779;-33.886;151.198;2023-02-04T09:07:05;2.10;;;0.93;;
25990;SDS011;13779;-33.886;151.198;2023-02-04T09:09:35;3.53;;;1.25;;
25990;SDS011;13779;-33.886;151.198;2023-02-04T09:12:05;4.90;;;1.00;;
25990;SDS011;13779;-33.886;151.198;2023-02-04T09:14:36;1.42;;;1.10;;
25990;SDS011;13779;-33.886;151.198;2023-02-04T09:17:06;11.07;;;0.77;;
25990;SDS011;13779;-33.886;151.198;2023-02-04T09:19:36;2.20;;;0.75;;
25990;SDS011;13779;-33.886;151.198;2023-02-04T09:22:06;4.40;;;1.15;;
25990;SDS011;13779;-33.886;151.198;2023-02-04T09:24:40;3.53;;;0.93;;
25990;SDS011;13779;-33.886;151.198;2023-02-04T09:27:12;2.45;;;1.30;;
25990;SDS011;13779;-33.886;151.198;2023-02-04T09:29:42;4.30;;;2.00;;
25990;SDS011;13779;-33.886;151.198;2023-02-04T09:32:12;1.83;;;1.10;;
25990;SDS011;13779;-33.886;151.198;2023-02-04T09:34:42;1.85;;;1.02;;
25990;SDS011;13779;-33.886;151.198;2023-02-04T09:37:13;3.47;;;0.80;;
25990;SDS011;13779;-33.886;151.198;2023-02-04T09:39:43;6.97;;;1.10;;
25990;SDS011;13779;-33.886;151.198;2023-02-04T09:42:14;2.65;;;1.00;;
25990;SDS011;13779;-33.886;151.198;2023-02-04T09:44:44;2.88;;;0.98;;
25990;SDS011;13779;-33.886;151.198;2023-02-04T09:47:15;3.55;;;1.30;;
25990;SDS011;13779;-33.886;151.198;2023-02-04T09:49:50;1.85;;;0.90;;
25990;SDS011;13779;-33.886;151.198;2023-02-04T09:52:20;3.65;;;1.10;;
25990;SDS011;13779;-33.886;151.198;2023-02-04T09:54:57;2.75;;;1.00;;
25990;SDS011;13779;-33.886;151.198;2023-02-04T09:57:27;2.50;;;1.35;;
25990;SDS011;13779;-33.886;151.198;2023-02-04T09:59:57;1.93;;;0.90;;
25990;SDS011;13779;-33.886;151.198;2023-02-04T10:02:28;2.63;;;1.23;;
25990;SDS011;13779;-33.886;151.198;2023-02-04T10:04:59;1.00;;;0.68;;
25990;SDS011;13779;-33.886;151.198;2023-02-04T10:07:29;2.78;;;1.10;;
25990;SDS011;13779;-33.886;151.198;2023-02-04T10:09:59;3.05;;;1.02;;
25990;SDS011;13779;-33.886;151.198;2023-02-04T10:12:30;2.22;;;0.88;;
25990;SDS011;13779;-33.886;151.198;2023-02-04T10:15:00;5.43;;;0.97;;
25990;SDS011;13779;-33.886;151.198;2023-02-04T10:17:31;4.22;;;1.00;;
25990;SDS011;13779;-33.886;151.198;2023-02-04T10:20:01;4.18;;;1.17;;
25990;SDS011;13779;-33.886;151.198;2023-02-04T10:22:31;1.55;;;0.70;;
25990;SDS011;13779;-33.886;151.198;2023-02-04T10:25:17;1.85;;;1.00;;
25990;SDS011;13779;-33.886;151.198;2023-02-04T10:27:50;4.35;;;0.95;;
25990;SDS011;13779;-33.886;151.198;2023-02-04T10:30:23;7.47;;;1.30;;
25990;SDS011;13779;-33.886;151.198;2023-02-04T10:32:56;2.22;;;1.20;;
25990;SDS011;13779;-33.886;151.198;2023-02-04T10:35:27;1.33;;;1.13;;
25990;SDS011;13779;-33.886;151.198;2023-02-04T10:38:02;4.57;;;1.10;;
25990;SDS011;13779;-33.886;151.198;2023-02-04T10:40:35;2.55;;;1.10;;
25990;SDS011;13779;-33.886;151.198;2023-02-04T10:43:09;2.53;;;1.20;;
25990;SDS011;13779;-33.886;151.198;2023-02-04T10:45:45;2.40;;;1.10;;
25990;SDS011;13779;-33.886;151.198;2023-02-04T10:48:28;2.17;;;1.40;;
25990;SDS011;13779;-33.886;151.198;2023-02-04T10:51:08;2.45;;;1.40;;
25990;SDS011;13779;-33.886;151.198;2023-02-04T10:53:41;3.83;;;1.70;;
25990;SDS011;13779;-33.886;151.198;2023-02-04T10:56:29;2.53;;;1.50;;
25990;SDS011;13779;-33.886;151.198;2023-02-04T10:59:00;4.40;;;1.30;;
25990;SDS011;13779;-33.886;151.198;2023-02-04T11:01:33;4.03;;;1.30;;
25990;SDS011;13779;-33.886;151.198;2023-02-04T11:04:07;4.78;;;1.67;;
25990;SDS011;13779;-33.886;151.198;2023-02-04T11:06:38;4.13;;;1.38;;
25990;SDS011;13779;-33.886;151.198;2023-02-04T11:09:12;5.63;;;1.80;;
25990;SDS011;13779;-33.886;151.198;2023-02-04T11:11:51;4.72;;;1.05;;
25990;SDS011;13779;-33.886;151.198;2023-02-04T11:14:26;3.95;;;1.60;;
25990;SDS011;13779;-33.886;151.198;2023-02-04T11:16:58;5.88;;;1.40;;
25990;SDS011;13779;-33.886;151.198;2023-02-04T11:19:35;3.30;;;1.30;;
25990;SDS011;13779;-33.886;151.198;2023-02-04T11:22:18;2.90;;;2.05;;
25990;SDS011;13779;-33.886;151.198;2023-02-04T11:24:50;2.58;;;1.20;;
25990;SDS011;13779;-33.886;151.198;2023-02-04T11:27:24;3.92;;;1.45;;
25990;SDS011;13779;-33.886;151.198;2023-02-04T11:30:06;2.33;;;1.27;;
25990;SDS011;13779;-33.886;151.198;2023-02-04T11:33:04;2.03;;;1.00;;
25990;SDS011;13779;-33.886;151.198;2023-02-04T11:36:04;3.35;;;0.95;;
25990;SDS011;13779;-33.886;151.198;2023-02-04T11:38:36;5.35;;;1.30;;
25990;SDS011;13779;-33.886;151.198;2023-02-04T11:41:11;3.78;;;1.20;;
25990;SDS011;13779;-33.886;151.198;2023-02-04T11:43:45;6.88;;;2.08;;
25990;SDS011;13779;-33.886;151.198;2023-02-04T11:46:20;3.47;;;1.70;;
25990;SDS011;13779;-33.886;151.198;2023-02-04T11:48:54;4.35;;;1.63;;
25990;SDS011;13779;-33.886;151.198;2023-02-04T11:51:34;2.67;;;1.20;;
25990;SDS011;13779;-33.886;151.198;2023-02-04T11:54:04;3.17;;;1.10;;
25990;SDS011;13779;-33.886;151.198;2023-02-04T11:56:35;6.43;;;1.60;;
25990;SDS011;13779;-33.886;151.198;2023-02-04T11:59:05;3.97;;;1.50;;
25990;SDS011;13779;-33.886;151.198;2023-02-04T12:01:39;3.80;;;1.20;;
25990;SDS011;13779;-33.886;151.198;2023-02-04T12:04:20;4.07;;;1.27;;
25990;SDS011;13779;-33.886;151.198;2023-02-04T12:07:00;5.97;;;1.23;;
25990;SDS011;13779;-33.886;151.198;2023-02-04T12:09:31;2.85;;;1.40;;
25990;SDS011;13779;-33.886;151.198;2023-02-04T12:12:02;2.13;;;1.13;;
25990;SDS011;13779;-33.886;151.198;2023-02-04T12:14:33;6.38;;;1.20;;
25990;SDS011;13779;-33.886;151.198;2023-02-04T12:17:17;3.70;;;1.60;;
25990;SDS011;13779;-33.886;151.198;2023-02-04T12:19:48;3.13;;;1.30;;
25990;SDS011;13779;-33.886;151.198;2023-02-04T12:22:18;2.33;;;1.27;;
25990;SDS011;13779;-33.886;151.198;2023-02-04T12:24:49;4.97;;;1.40;;
25990;SDS011;13779;-33.886;151.198;2023-02-04T12:27:20;5.45;;;1.58;;
25990;SDS011;13779;-33.886;151.198;2023-02-04T12:29:50;3.60;;;1.67;;
25990;SDS011;13779;-33.886;151.198;2023-02-04T12:32:20;3.83;;;1.45;;
25990;SDS011;13779;-33.886;151.198;2023-02-04T12:34:50;4.90;;;1.02;;
25990;SDS011;13779;-33.886;151.198;2023-02-04T12:37:20;11.07;;;1.40;;
25990;SDS011;13779;-33.886;151.198;2023-02-04T12:39:50;3.38;;;1.40;;
25990;SDS011;13779;-33.886;151.198;2023-02-04T12:42:20;3.55;;;1.25;;
25990;SDS011;13779;-33.886;151.198;2023-02-04T12:44:50;4.00;;;1.42;;
25990;SDS011;13779;-33.886;151.198;2023-02-04T12:47:20;3.53;;;0.90;;
25990;SDS011;13779;-33.886;151.198;2023-02-04T12:49:50;2.78;;;0.93;;
25990;SDS011;13779;-33.886;151.198;2023-02-04T12:52:20;5.88;;;1.45;;
25990;SDS011;13779;-33.886;151.198;2023-02-04T12:54:51;1.58;;;0.85;;
25990;SDS011;13779;-33.886;151.198;2023-02-04T12:57:21;3.80;;;1.00;;
25990;SDS011;13779;-33.886;151.198;2023-02-04T12:59:51;2.50;;;1.38;;
25990;SDS011;13779;-33.886;151.198;2023-02-04T13:02:25;2.20;;;1.30;;
25990;SDS011;13779;-33.886;151.198;2023-02-04T13:07:26;2.95;;;1.25;;
25990;SDS011;13779;-33.886;151.198;2023-02-04T13:09:56;2.58;;;1.17;;
25990;SDS011;13779;-33.886;151.198;2023-02-04T13:12:26;6.10;;;1.20;;
25990;SDS011;13779;-33.886;151.198;2023-02-04T13:14:56;3.95;;;1.15;;
25990;SDS011;13779;-33.886;151.198;2023-02-04T13:17:26;2.55;;;1.10;;
25990;SDS011;13779;-33.886;151.198;2023-02-04T13:19:57;5.82;;;1.63;;
25990;SDS011;13779;-33.886;151.198;2023-02-04T13:22:27;2.40;;;0.90;;
25990;SDS011;13779;-33.886;151.198;2023-02-04T13:24:58;5.32;;;1.60;;
25990;SDS011;13779;-33.886;151.198;2023-02-04T13:27:29;4.25;;;1.10;;
25990;SDS011;13779;-33.886;151.198;2023-02-04T13:30:00;4.17;;;1.40;;
25990;SDS011;13779;-33.886;151.198;2023-02-04T13:32:30;5.10;;;1.13;;
25990;SDS011;13779;-33.886;151.198;2023-02-04T13:35:01;2.55;;;0.85;;
25990;SDS011;13779;-33.886;151.198;2023-02-04T13:37:31;6.38;;;1.45;;
25990;SDS011;13779;-33.886;151.198;2023-02-04T13:40:01;3.43;;;1.30;;
25990;SDS011;13779;-33.886;151.198;2023-02-04T13:42:31;5.30;;;1.93;;
25990;SDS011;13779;-33.886;151.198;2023-02-04T13:45:02;2.67;;;0.98;;
25990;SDS011;13779;-33.886;151.198;2023-02-04T13:47:32;5.00;;;0.90;;
25990;SDS011;13779;-33.886;151.198;2023-02-04T13:50:02;3.72;;;1.65;;
25990;SDS011;13779;-33.886;151.198;2023-02-04T13:52:33;11.10;;;1.77;;
25990;SDS011;13779;-33.886;151.198;2023-02-04T13:55:03;4.57;;;1.30;;
25990;SDS011;13779;-33.886;151.198;2023-02-04T13:57:34;6.40;;;1.10;;
25990;SDS011;13779;-33.886;151.198;2023-02-04T14:00:05;3.53;;;1.27;;
25990;SDS011;13779;-33.886;151.198;2023-02-04T14:05:06;3.58;;;1.20;;
25990;SDS011;13779;-33.886;151.198;2023-02-04T14:07:36;3.47;;;0.98;;
25990;SDS011;13779;-33.886;151.198;2023-02-04T14:10:06;7.53;;;1.23;;
25990;SDS011;13779;-33.886;151.198;2023-02-04T14:12:36;2.40;;;0.97;;
25990;SDS011;13779;-33.886;151.198;2023-02-04T14:17:37;5.82;;;0.95;;
25990;SDS011;13779;-33.886;151.198;2023-02-04T14:20:08;2.40;;;0.82;;
25990;SDS011;13779;-33.886;151.198;2023-02-04T14:22:38;5.05;;;0.80;;
25990;SDS011;13779;-33.886;151.198;2023-02-04T14:25:08;3.83;;;0.82;;
25990;SDS011;13779;-33.886;151.198;2023-02-04T14:27:38;2.05;;;0.82;;
25990;SDS011;13779;-33.886;151.198;2023-02-04T14:30:14;6.40;;;1.35;;
25990;SDS011;13779;-33.886;151.198;2023-02-04T14:32:49;5.00;;;0.90;;
25990;SDS011;13779;-33.886;151.198;2023-02-04T14:35:19;4.55;;;1.15;;
25990;SDS011;13779;-33.886;151.198;2023-02-04T14:37:50;7.43;;;1.52;;
25990;SDS011;13779;-33.886;151.198;2023-02-04T14:40:20;4.10;;;1.40;;
25990;SDS011;13779;-33.886;151.198;2023-02-04T14:42:51;3.65;;;1.40;;
25990;SDS011;13779;-33.886;151.198;2023-02-04T14:45:21;3.63;;;1.35;;
25990;SDS011;13779;-33.886;151.198;2023-02-04T14:47:51;3.92;;;1.15;;
25990;SDS011;13779;-33.886;151.198;2023-02-04T14:50:24;3.53;;;1.30;;